createdAt,value
2022-10-05T00:01:48.594Z,10.90
2022-10-05T00:04:35.466Z,10.90
2022-10-05T00:07:24.475Z,10.80
2022-10-05T00:10:17.118Z,10.80
2022-10-05T00:13:12.294Z,10.80
2022-10-05T00:16:05.681Z,10.80
2022-10-05T00:18:54.651Z,10.60
2022-10-05T00:21:41.859Z,10.60
2022-10-05T00:24:29.616Z,10.50
2022-10-05T00:27:20.732Z,10.40
2022-10-05T00:30:14.731Z,10.40
2022-10-05T00:33:02.535Z,10.40
2022-10-05T00:35:49.955Z,10.30
2022-10-05T00:38:36.989Z,10.30
2022-10-05T00:41:30.524Z,10.20
2022-10-05T00:44:33.684Z,10.20
2022-10-05T00:47:35.549Z,10.20
2022-10-05T00:50:49.130Z,10.20
2022-10-05T00:53:44.683Z,10.20
2022-10-05T00:56:56.455Z,10.10
2022-10-05T00:59:58.981Z,10.20
2022-10-05T01:02:54.434Z,10.20
2022-10-05T01:05:57.546Z,10.20
2022-10-05T01:08:52.610Z,10.20
2022-10-05T01:11:44.552Z,10.20
2022-10-05T01:14:38.353Z,10.20
2022-10-05T01:17:33.339Z,10.20
2022-10-05T01:20:40.200Z,10.10
2022-10-05T01:24:02.686Z,10.20
2022-10-05T01:27:16.700Z,10.30
2022-10-05T01:30:09.197Z,10.30
2022-10-05T01:33:03.549Z,10.30
2022-10-05T01:36:00.541Z,10.20
2022-10-05T01:38:58.796Z,10.20
2022-10-05T01:41:56.197Z,10.30
2022-10-05T01:44:54.347Z,10.30
2022-10-05T01:47:46.763Z,10.30
2022-10-05T01:50:43.855Z,10.30
2022-10-05T01:53:41.409Z,10.30
2022-10-05T01:56:36.785Z,10.30
2022-10-05T01:59:35.861Z,10.30
2022-10-05T02:02:25.355Z,10.30
2022-10-05T02:05:19.288Z,10.30
2022-10-05T02:08:10.649Z,10.30
2022-10-05T02:11:03.185Z,10.30
2022-10-05T02:13:54.039Z,10.20
2022-10-05T02:16:42.972Z,10.20
2022-10-05T02:19:36.105Z,10.20
2022-10-05T02:22:31.786Z,10.20
2022-10-05T02:25:22.403Z,10.20
2022-10-05T02:28:13.573Z,10.20
2022-10-05T02:31:07.933Z,10.10
2022-10-05T02:34:23.823Z,10.10
2022-10-05T02:37:25.202Z,10.00
2022-10-05T02:40:24.984Z,10.00
2022-10-05T02:43:27.943Z,10.00
2022-10-05T02:46:25.475Z,10.00
2022-10-05T02:49:23.639Z,10.00
2022-10-05T02:52:17.737Z,10.00
2022-10-05T02:55:10.313Z,10.00
2022-10-05T02:58:04.149Z,10.00
2022-10-05T03:01:00.930Z,10.00
2022-10-05T03:03:58.167Z,9.90
2022-10-05T03:06:52.822Z,9.90
2022-10-05T03:09:48.820Z,9.90
2022-10-05T03:12:45.649Z,9.90
2022-10-05T03:15:50.896Z,9.90
2022-10-05T03:18:49.542Z,9.90
2022-10-05T03:21:49.789Z,9.90
2022-10-05T03:24:56.222Z,9.90
2022-10-05T03:27:51.290Z,9.90
2022-10-05T03:30:45.221Z,9.80
2022-10-05T03:33:43.123Z,9.80
2022-10-05T03:36:37.429Z,9.80
2022-10-05T03:39:32.489Z,9.80
2022-10-05T03:42:31.171Z,9.90
2022-10-05T03:45:24.637Z,9.90
2022-10-05T03:48:16.517Z,9.90
2022-10-05T03:51:12.077Z,9.90
2022-10-05T03:54:10.031Z,9.90
2022-10-05T03:57:04.146Z,9.90
2022-10-05T03:59:59.824Z,9.90
2022-10-05T04:02:52.149Z,10.00
2022-10-05T04:05:44.492Z,10.00
2022-10-05T04:08:38.074Z,9.90
2022-10-05T04:11:29.481Z,9.90
2022-10-05T04:14:23.647Z,9.90
2022-10-05T04:17:17.519Z,10.00
2022-10-05T04:20:18.421Z,10.00
2022-10-05T04:23:18.198Z,10.00
2022-10-05T04:26:09.000Z,10.00
2022-10-05T04:28:59.977Z,10.00
2022-10-05T04:32:02.331Z,10.00
2022-10-05T04:35:04.370Z,10.00
2022-10-05T04:37:59.351Z,10.00
2022-10-05T04:41:02.421Z,10.00
2022-10-05T04:44:02.977Z,9.90
2022-10-05T04:47:05.028Z,9.90
2022-10-05T04:50:08.683Z,9.90
2022-10-05T04:53:02.783Z,9.90
2022-10-05T04:55:56.635Z,10.00
2022-10-05T04:59:05.848Z,10.00
2022-10-05T05:02:05.885Z,10.00
2022-10-05T05:05:20.560Z,10.00
2022-10-05T05:08:25.960Z,10.00
2022-10-05T05:11:28.710Z,10.00
2022-10-05T05:14:45.483Z,10.00
2022-10-05T05:17:47.724Z,10.00
2022-10-05T05:20:50.232Z,10.00
2022-10-05T05:23:45.312Z,9.90
2022-10-05T05:26:48.800Z,10.00
2022-10-05T05:29:44.886Z,10.00
2022-10-05T05:32:42.060Z,10.10
2022-10-05T05:35:58.773Z,10.10
2022-10-05T05:38:53.854Z,10.10
2022-10-05T05:41:49.539Z,10.10
2022-10-05T05:44:42.630Z,10.10
2022-10-05T05:47:35.212Z,10.10
2022-10-05T05:50:34.998Z,10.10
2022-10-05T05:53:30.380Z,10.20
2022-10-05T05:56:21.569Z,10.30
2022-10-05T05:59:18.601Z,10.30
2022-10-05T06:02:10.493Z,10.40
2022-10-05T06:05:03.794Z,10.40
2022-10-05T06:07:52.610Z,10.40
2022-10-05T06:10:46.323Z,10.50
2022-10-05T06:13:36.006Z,10.50
2022-10-05T06:16:31.095Z,10.60
2022-10-05T06:19:21.345Z,10.60
2022-10-05T06:22:17.160Z,10.70
2022-10-05T06:25:19.352Z,10.70
2022-10-05T06:28:12.470Z,10.80
2022-10-05T06:31:19.895Z,10.80
2022-10-05T06:34:29.724Z,10.80
2022-10-05T06:37:29.746Z,10.90
2022-10-05T06:40:28.669Z,10.90
2022-10-05T06:43:32.942Z,11.00
2022-10-05T06:46:56.831Z,11.00
2022-10-05T06:50:32.518Z,11.20
2022-10-05T06:53:35.796Z,11.20
2022-10-05T06:56:30.345Z,11.30
2022-10-05T06:59:28.622Z,11.30
2022-10-05T07:02:23.896Z,11.30
2022-10-05T07:05:35.506Z,11.30
2022-10-05T07:08:34.989Z,11.50
2022-10-05T07:11:45.444Z,11.50
2022-10-05T07:14:46.978Z,11.60
2022-10-05T07:17:45.635Z,11.70
2022-10-05T07:20:39.389Z,11.70
2022-10-05T07:23:38.618Z,11.90
2022-10-05T07:26:33.044Z,11.90
2022-10-05T07:29:24.396Z,12.00
2022-10-05T07:32:25.531Z,12.00
2022-10-05T07:35:38.774Z,12.10
2022-10-05T07:38:32.011Z,12.20
2022-10-05T07:41:25.482Z,12.30
2022-10-05T07:44:19.814Z,12.50
2022-10-05T07:47:16.321Z,12.60
2022-10-05T07:50:08.687Z,12.70
2022-10-05T07:52:59.114Z,12.90
2022-10-05T07:55:51.090Z,13.10
2022-10-05T07:58:44.313Z,13.20
2022-10-05T08:01:35.901Z,13.20
2022-10-05T08:04:31.535Z,13.20
2022-10-05T08:07:19.780Z,13.30
2022-10-05T08:10:19.388Z,13.30
2022-10-05T08:13:13.779Z,13.40
2022-10-05T08:16:04.457Z,13.50
2022-10-05T08:18:58.164Z,13.50
2022-10-05T08:21:51.749Z,13.60
2022-10-05T08:24:45.047Z,13.60
2022-10-05T08:27:39.789Z,13.70
2022-10-05T08:30:26.716Z,13.90
2022-10-05T08:33:17.917Z,14.10
2022-10-05T08:36:11.350Z,14.20
2022-10-05T08:39:03.942Z,14.30
2022-10-05T08:42:27.689Z,14.50
2022-10-05T08:46:06.276Z,14.90
2022-10-05T08:49:22.772Z,15.20
2022-10-05T08:52:29.870Z,15.30
2022-10-05T08:55:39.226Z,15.20
2022-10-05T08:58:53.091Z,15.20
2022-10-05T09:01:57.672Z,15.10
2022-10-05T09:05:01.477Z,15.20
2022-10-05T09:08:20.656Z,15.30
2022-10-05T09:11:13.577Z,15.50
2022-10-05T09:14:29.206Z,15.80
2022-10-05T09:17:37.121Z,15.80
2022-10-05T09:20:32.214Z,15.90
2022-10-05T09:23:36.688Z,16.00
2022-10-05T09:26:45.553Z,15.90
2022-10-05T09:30:06.595Z,15.90
2022-10-05T09:33:54.189Z,15.90
2022-10-05T09:37:21.341Z,16.00
2022-10-05T09:40:50.432Z,15.90
2022-10-05T09:44:15.200Z,15.90
2022-10-05T09:47:50.553Z,15.80
2022-10-05T09:51:10.063Z,15.70
2022-10-05T09:54:43.127Z,15.80
2022-10-05T09:57:57.056Z,15.80
2022-10-05T10:01:15.503Z,16.00
2022-10-05T10:04:29.662Z,16.00
2022-10-05T10:07:42.494Z,16.00
2022-10-05T10:11:05.366Z,16.10
2022-10-05T10:14:13.030Z,16.30
2022-10-05T10:17:08.639Z,16.30
2022-10-05T10:20:14.562Z,16.40
2022-10-05T10:23:21.141Z,16.40
2022-10-05T10:26:32.325Z,16.50
2022-10-05T10:29:53.209Z,16.50
2022-10-05T10:33:28.313Z,16.40
2022-10-05T10:36:19.250Z,16.50
2022-10-05T10:39:13.357Z,16.50
2022-10-05T10:42:26.747Z,16.60
2022-10-05T10:45:28.113Z,16.70
2022-10-05T10:48:51.232Z,16.70
2022-10-05T10:52:05.895Z,16.80
2022-10-05T10:55:26.101Z,16.80
2022-10-05T10:58:55.119Z,16.80
2022-10-05T11:01:50.320Z,17.00
2022-10-05T11:05:02.878Z,17.10
2022-10-05T11:08:09.802Z,17.00
2022-10-05T11:11:20.613Z,17.10
2022-10-05T11:14:51.666Z,17.20
2022-10-05T11:17:59.027Z,17.50
2022-10-05T11:21:03.702Z,17.70
2022-10-05T11:24:32.631Z,17.70
2022-10-05T11:27:52.449Z,17.70
2022-10-05T11:31:20.072Z,17.90
2022-10-05T11:34:44.711Z,18.20
2022-10-05T11:37:59.922Z,18.20
2022-10-05T11:41:11.346Z,18.00
2022-10-05T11:44:35.789Z,18.10
2022-10-05T11:47:28.829Z,18.20
2022-10-05T11:50:21.943Z,18.30
2022-10-05T11:53:15.477Z,18.10
2022-10-05T11:56:09.600Z,18.10
2022-10-05T11:59:02.641Z,18.00
2022-10-05T12:01:55.910Z,18.00
2022-10-05T12:04:53.008Z,18.00
2022-10-05T12:07:48.671Z,18.00
2022-10-05T12:10:42.911Z,18.10
2022-10-05T12:13:40.116Z,18.10
2022-10-05T12:16:34.741Z,18.20
2022-10-05T12:19:28.615Z,18.40
2022-10-05T12:22:22.596Z,18.70
2022-10-05T12:25:28.023Z,18.70
2022-10-05T12:28:19.505Z,18.80
2022-10-05T12:31:31.057Z,18.90
2022-10-05T12:34:27.183Z,19.10
2022-10-05T12:37:42.394Z,19.20
2022-10-05T12:40:37.072Z,19.20
2022-10-05T12:43:31.771Z,19.30
2022-10-05T12:46:27.504Z,19.20
2022-10-05T12:49:25.997Z,19.30
2022-10-05T12:52:28.023Z,19.10
2022-10-05T12:55:25.971Z,19.20
2022-10-05T12:58:24.105Z,19.20
2022-10-05T13:01:24.042Z,19.20
2022-10-05T13:04:26.359Z,19.30
2022-10-05T13:07:33.434Z,19.50
2022-10-05T13:10:34.430Z,19.50
2022-10-05T13:13:35.265Z,19.50
2022-10-05T13:16:33.225Z,19.40
2022-10-05T13:19:35.193Z,19.20
2022-10-05T13:22:32.647Z,19.10
2022-10-05T13:25:28.471Z,19.20
2022-10-05T13:28:20.312Z,19.30
2022-10-05T13:31:19.506Z,19.40
2022-10-05T13:34:22.173Z,19.50
2022-10-05T13:37:17.819Z,19.50
2022-10-05T13:40:21.683Z,19.40
2022-10-05T13:43:20.935Z,19.60
2022-10-05T13:46:14.451Z,19.60
2022-10-05T13:49:16.677Z,19.40
2022-10-05T13:52:17.527Z,19.40
2022-10-05T13:55:17.072Z,19.50
2022-10-05T13:58:12.554Z,19.50
2022-10-05T14:01:03.715Z,19.40
2022-10-05T14:04:10.999Z,19.30
2022-10-05T14:07:14.567Z,19.30
2022-10-05T14:10:04.472Z,19.10
2022-10-05T14:12:55.695Z,19.00
2022-10-05T14:15:56.097Z,19.00
2022-10-05T14:18:55.377Z,19.00
2022-10-05T14:21:49.470Z,19.00
2022-10-05T14:24:44.302Z,19.00
2022-10-05T14:27:36.376Z,19.00
2022-10-05T14:30:26.178Z,19.00
2022-10-05T14:33:17.397Z,19.00
2022-10-05T14:36:16.120Z,18.90
2022-10-05T14:39:05.037Z,19.00
2022-10-05T14:41:52.397Z,18.90
2022-10-05T14:44:39.400Z,19.00
2022-10-05T14:47:30.524Z,19.00
2022-10-05T14:50:20.587Z,18.90
2022-10-05T14:53:17.483Z,19.00
2022-10-05T14:56:19.493Z,19.00
2022-10-05T14:59:25.682Z,18.90
2022-10-05T15:02:35.197Z,18.90
2022-10-05T15:05:31.183Z,18.90
2022-10-05T15:08:48.491Z,19.00
2022-10-05T15:11:43.475Z,18.90
2022-10-05T15:14:32.743Z,18.90
2022-10-05T15:17:26.978Z,18.80
2022-10-05T15:20:21.243Z,18.80
2022-10-05T15:23:23.704Z,18.70
2022-10-05T15:26:26.055Z,18.70
2022-10-05T15:29:26.048Z,18.70
2022-10-05T15:32:22.487Z,18.60
2022-10-05T15:35:43.584Z,18.60
2022-10-05T15:38:40.175Z,18.50
2022-10-05T15:41:45.544Z,18.50
2022-10-05T15:44:58.865Z,18.40
2022-10-05T15:47:52.912Z,18.40
2022-10-05T15:50:56.828Z,18.30
2022-10-05T15:53:52.701Z,18.30
2022-10-05T15:56:47.395Z,18.20
2022-10-05T15:59:39.643Z,18.20
2022-10-05T16:02:38.296Z,18.10
2022-10-05T16:06:09.842Z,18.10
2022-10-05T16:09:07.521Z,18.00
2022-10-05T16:12:04.091Z,17.90
2022-10-05T16:15:16.793Z,17.80
2022-10-05T16:18:36.594Z,17.70
2022-10-05T16:21:30.890Z,17.70
2022-10-05T16:24:28.605Z,17.60
2022-10-05T16:27:24.581Z,17.50
2022-10-05T16:30:18.059Z,17.40
2022-10-05T16:33:12.786Z,17.30
2022-10-05T16:36:08.032Z,17.20
2022-10-05T16:39:01.552Z,17.10
2022-10-05T16:41:56.781Z,17.00
2022-10-05T16:44:54.322Z,16.90
2022-10-05T16:47:47.784Z,16.80
2022-10-05T16:50:44.399Z,16.60
2022-10-05T16:53:37.833Z,16.50
2022-10-05T16:56:29.752Z,16.40
2022-10-05T16:59:52.665Z,16.30
2022-10-05T17:02:53.908Z,16.00
2022-10-05T17:05:56.774Z,15.90
2022-10-05T17:09:10.854Z,15.80
2022-10-05T17:12:26.704Z,15.70
2022-10-05T17:15:30.167Z,15.50
2022-10-05T17:18:29.657Z,15.50
2022-10-05T17:21:23.418Z,15.30
2022-10-05T17:24:28.961Z,15.20
2022-10-05T17:27:20.473Z,15.10
2022-10-05T17:30:23.738Z,15.10
2022-10-05T17:33:28.901Z,15.10
2022-10-05T17:36:19.703Z,15.10
2022-10-05T17:39:16.645Z,14.90
2022-10-05T17:42:39.675Z,14.80
2022-10-05T17:45:56.762Z,14.70
2022-10-05T17:49:08.286Z,14.60
2022-10-05T17:52:27.318Z,14.50
2022-10-05T17:55:35.980Z,14.50
2022-10-05T17:59:02.601Z,14.50
2022-10-05T18:02:15.912Z,14.40
2022-10-05T18:05:16.440Z,14.40
2022-10-05T18:08:31.828Z,14.40
2022-10-05T18:11:37.499Z,14.40
2022-10-05T18:14:26.311Z,14.30
2022-10-05T18:17:14.199Z,14.40
2022-10-05T18:20:32.583Z,14.50
2022-10-05T18:23:35.312Z,14.60
2022-10-05T18:26:32.174Z,14.70
2022-10-05T18:29:45.063Z,14.80
2022-10-05T18:32:47.945Z,14.80
2022-10-05T18:35:46.633Z,14.80
2022-10-05T18:38:52.868Z,14.90
2022-10-05T18:41:57.190Z,15.00
2022-10-05T18:44:48.117Z,15.00
2022-10-05T18:47:42.145Z,15.00
2022-10-05T18:50:34.547Z,15.00
2022-10-05T18:53:31.349Z,15.00
2022-10-05T18:56:26.893Z,15.00
2022-10-05T18:59:31.286Z,15.00
2022-10-05T19:02:26.144Z,14.90
2022-10-05T19:05:47.397Z,14.90
2022-10-05T19:08:44.844Z,14.90
2022-10-05T19:11:39.523Z,14.90
2022-10-05T19:14:38.374Z,14.80
2022-10-05T19:17:29.203Z,14.90
2022-10-05T19:20:24.362Z,14.90
2022-10-05T19:23:27.698Z,14.80
2022-10-05T19:26:20.843Z,14.90
2022-10-05T19:29:22.543Z,14.90
2022-10-05T19:32:18.772Z,14.90
2022-10-05T19:35:17.621Z,14.90
2022-10-05T19:38:16.723Z,14.90
2022-10-05T19:41:13.457Z,14.80
2022-10-05T19:44:17.553Z,14.90
2022-10-05T19:47:17.392Z,14.80
2022-10-05T19:50:21.185Z,14.90
2022-10-05T19:53:14.277Z,14.90
2022-10-05T19:56:20.055Z,14.80
2022-10-05T19:59:19.988Z,14.80
2022-10-05T20:02:07.290Z,14.80
2022-10-05T20:04:56.510Z,14.80
2022-10-05T20:07:43.951Z,14.80
2022-10-05T20:10:31.887Z,14.80
2022-10-05T20:13:20.875Z,14.70
2022-10-05T20:16:35.577Z,14.70
2022-10-05T20:19:46.310Z,14.70
2022-10-05T20:22:35.114Z,14.60
2022-10-05T20:25:32.847Z,14.60
2022-10-05T20:28:31.822Z,14.60
2022-10-05T20:31:20.461Z,14.50
2022-10-05T20:34:08.085Z,14.50
2022-10-05T20:36:55.362Z,14.50
2022-10-05T20:39:43.080Z,14.50
2022-10-05T20:42:30.236Z,14.50
2022-10-05T20:45:17.404Z,14.50
2022-10-05T20:48:05.956Z,14.50
2022-10-05T20:50:53.302Z,14.50
2022-10-05T20:53:40.702Z,14.50
2022-10-05T20:56:29.487Z,14.50
2022-10-05T20:59:17.199Z,14.50
2022-10-05T21:02:04.486Z,14.50
2022-10-05T21:04:53.097Z,14.50
2022-10-05T21:07:40.862Z,14.50
2022-10-05T21:10:28.180Z,14.60
2022-10-05T21:13:14.969Z,14.50
2022-10-05T21:16:02.283Z,14.60
2022-10-05T21:18:49.799Z,14.60
2022-10-05T21:21:38.756Z,14.60
2022-10-05T21:24:26.565Z,14.70
2022-10-05T21:27:13.904Z,14.80
2022-10-05T21:30:01.248Z,14.80
2022-10-05T21:32:48.559Z,14.80
2022-10-05T21:35:35.531Z,14.90
2022-10-05T21:38:24.023Z,14.90
2022-10-05T21:41:11.286Z,14.90
2022-10-05T21:43:58.522Z,14.90
2022-10-05T21:46:45.755Z,15.00
2022-10-05T21:49:33.885Z,15.10
2022-10-05T21:52:21.106Z,15.10
2022-10-05T21:55:12.777Z,15.10
2022-10-05T21:58:00.221Z,15.10
2022-10-05T22:00:47.553Z,15.00
2022-10-05T22:03:34.572Z,15.00
2022-10-05T22:06:21.440Z,15.10
2022-10-05T22:09:08.641Z,15.00
2022-10-05T22:11:57.393Z,15.00
2022-10-05T22:14:44.456Z,15.10
2022-10-05T22:17:32.291Z,15.10
2022-10-05T22:20:21.730Z,15.00
2022-10-05T22:23:08.963Z,14.90
2022-10-05T22:25:56.020Z,15.00
2022-10-05T22:28:46.703Z,15.00
2022-10-05T22:31:33.688Z,15.00
2022-10-05T22:34:20.678Z,15.00
2022-10-05T22:37:12.899Z,15.00
2022-10-05T22:40:00.121Z,15.00
2022-10-05T22:42:47.254Z,15.00
2022-10-05T22:45:35.605Z,14.90
2022-10-05T22:48:22.787Z,14.90
2022-10-05T22:51:10.086Z,14.90
2022-10-05T22:53:57.555Z,14.90
2022-10-05T22:56:44.754Z,14.90
2022-10-05T22:59:31.866Z,15.00
2022-10-05T23:02:20.430Z,15.00
2022-10-05T23:05:08.440Z,14.90
2022-10-05T23:07:55.500Z,14.90
2022-10-05T23:10:43.326Z,14.90
2022-10-05T23:13:30.306Z,15.00
2022-10-05T23:16:20.204Z,14.90
2022-10-05T23:19:08.310Z,14.80
2022-10-05T23:21:55.677Z,14.70
2022-10-05T23:24:42.763Z,14.70
2022-10-05T23:27:30.020Z,14.60
2022-10-05T23:30:17.241Z,14.60
2022-10-05T23:33:04.038Z,14.60
2022-10-05T23:35:59.925Z,14.60
2022-10-05T23:38:46.966Z,14.60
2022-10-05T23:41:34.289Z,14.60
2022-10-05T23:44:22.885Z,14.50
2022-10-05T23:47:09.794Z,14.50
2022-10-05T23:49:56.926Z,14.60
2022-10-05T23:52:45.555Z,14.50
2022-10-05T23:55:33.014Z,14.50
2022-10-05T23:58:20.632Z,14.50
